Time;durP1;ratioP1;P1;durP2;ratioP2;P2;SDS_P1;SDS_P2;PMS_P1;PMS_P2;Temp;Humidity;BMP_temperature;BMP_pressure;BME280_temperature;BME280_humidity;BME280_pressure;Samples;Min_cycle;Max_cycle;Signal;HPM_P1;HPM_P2
2023/08/22 00:01:21;;;;;;;5.07;1.60;;;;;;;;;;4941586;29;20028;-76
2023/08/22 00:03:47;;;;;;;4.18;1.40;;;;;;;;;;4942912;29;20034;-76
2023/08/22 00:06:14;;;;;;;5.03;1.55;;;;;;;;;;4942578;29;20535;-76
2023/08/22 00:08:40;;;;;;;5.55;1.45;;;;;;;;;;4942103;29;20034;-76
2023/08/22 00:11:06;;;;;;;3.72;1.42;;;;;;;;;;4941597;29;20030;-76
2023/08/22 00:13:32;;;;;;;4.63;1.83;;;;;;;;;;4941114;29;20447;-76
2023/08/22 00:15:59;;;;;;;5.22;1.70;;;;;;;;;;4942362;29;20039;-76
2023/08/22 00:18:26;;;;;;;3.38;1.50;;;;;;;;;;4942354;29;20102;-76
2023/08/22 00:20:52;;;;;;;2.83;1.20;;;;;;;;;;4941973;29;20087;-76
2023/08/22 00:23:18;;;;;;;3.70;1.58;;;;;;;;;;4941890;29;20470;-76
2023/08/22 00:25:44;;;;;;;4.32;1.35;;;;;;;;;;4941930;29;20435;-77
2023/08/22 00:28:10;;;;;;;3.20;1.48;;;;;;;;;;4941729;29;20023;-77
2023/08/22 00:30:36;;;;;;;4.82;1.67;;;;;;;;;;4941116;29;20023;-77
2023/08/22 00:33:02;;;;;;;4.90;1.50;;;;;;;;;;4924936;29;20024;-77
2023/08/22 00:35:28;;;;;;;3.85;1.60;;;;;;;;;;4941201;29;20031;-77
2023/08/22 00:37:55;;;;;;;2.88;1.30;;;;;;;;;;4941266;29;20079;-77
2023/08/22 00:40:21;;;;;;;3.17;1.40;;;;;;;;;;4928125;29;20091;-77
2023/08/22 00:42:47;;;;;;;2.47;1.38;;;;;;;;;;4941042;29;20020;-76
2023/08/22 00:45:13;;;;;;;4.38;1.52;;;;;;;;;;4941076;29;20027;-76
2023/08/22 00:47:39;;;;;;;3.92;1.20;;;;;;;;;;4940509;29;20469;-76
2023/08/22 00:50:05;;;;;;;3.03;1.10;;;;;;;;;;4940827;29;20082;-76
2023/08/22 00:52:32;;;;;;;4.30;1.50;;;;;;;;;;4940951;29;20023;-76
2023/08/22 00:54:58;;;;;;;4.05;1.77;;;;;;;;;;4940195;29;20039;-76
2023/08/22 00:57:24;;;;;;;3.70;1.48;;;;;;;;;;4940675;29;20031;-75
2023/08/22 00:59:50;;;;;;;3.83;1.63;;;;;;;;;;4939805;29;20055;-76
2023/08/22 01:02:16;;;;;;;3.83;1.55;;;;;;;;;;4941453;29;20028;-78
2023/08/22 01:04:42;;;;;;;2.88;1.60;;;;;;;;;;4941764;29;20063;-78
2023/08/22 01:07:27;;;;;;;2.85;1.40;;;;;;;;;;4941661;29;20070;-77
2023/08/22 01:09:53;;;;;;;5.13;1.50;;;;;;;;;;4941206;29;20463;-78
2023/08/22 01:12:19;;;;;;;;;;;;;;;;;;4941949;29;20059;-78
2023/08/22 01:14:45;;;;;;;;;;;;;;;;;;4941613;29;19930;-77
2023/08/22 01:17:11;;;;;;;;;;;;;;;;;;4941330;29;19914;-78
2023/08/22 01:19:37;;;;;;;5.70;1.73;;;;;;;;;;4940611;29;19962;-78
2023/08/22 01:22:03;;;;;;;3.80;1.55;;;;;;;;;;4941074;29;20107;-77
2023/08/22 01:24:29;;;;;;;5.68;1.80;;;;;;;;;;4941088;29;20046;-78
2023/08/22 01:26:55;;;;;;;3.97;1.65;;;;;;;;;;4924054;29;20036;-78
2023/08/22 01:29:30;;;;;;;4.13;1.63;;;;;;;;;;4940791;29;20404;-78
2023/08/22 01:32:19;;;;;;;5.38;2.15;;;;;;;;;;4939779;29;20408;-78
2023/08/22 01:34:46;;;;;;;3.15;1.60;;;;;;;;;;4932367;29;20063;-78
2023/08/22 01:37:12;;;;;;;3.47;1.77;;;;;;;;;;4940129;29;20076;-78
2023/08/22 01:39:39;;;;;;;4.65;1.70;;;;;;;;;;4927627;29;20020;-78
2023/08/22 01:42:06;;;;;;;5.70;1.98;;;;;;;;;;4940666;29;20036;-78
2023/08/22 01:44:32;;;;;;;2.65;1.38;;;;;;;;;;4940694;29;20083;-78
2023/08/22 01:46:58;;;;;;;4.78;1.75;;;;;;;;;;4940375;29;20449;-78
2023/08/22 01:49:24;;;;;;;4.72;1.80;;;;;;;;;;4924792;29;20487;-77
2023/08/22 01:51:50;;;;;;;2.47;1.60;;;;;;;;;;4940652;29;20465;-75
2023/08/22 01:54:16;;;;;;;4.15;1.85;;;;;;;;;;4939983;29;20473;-76
2023/08/22 01:56:42;;;;;;;;;;;;;;;;;;4940325;29;20375;-77
2023/08/22 01:59:08;;;;;;;;;;;;;;;;;;4940772;29;19907;-78
2023/08/22 02:01:33;;;;;;;;;;;;;;;;;;4940165;29;19928;-77
2023/08/22 02:04:03;;;;;;;;;;;;;;;;;;4941064;29;19914;-77
2023/08/22 02:06:29;;;;;;;;;;;;;;;;;;4940932;29;19922;-77
2023/08/22 02:08:55;;;;;;;;;;;;;;;;;;4940238;29;19911;-77
2023/08/22 02:11:21;;;;;;;;;;;;;;;;;;4939142;29;19927;-78
2023/08/22 02:13:47;;;;;;;;;;;;;;;;;;4940999;29;19915;-77
2023/08/22 02:16:13;;;;;;;;;;;;;;;;;;4940519;29;19917;-77
2023/08/22 02:18:39;;;;;;;;;;;;;;;;;;4940529;29;19907;-78
2023/08/22 02:21:05;;;;;;;;;;;;;;;;;;4940734;29;20368;-78
2023/08/22 02:23:32;;;;;;;;;;;;;;;;;;4940502;29;19918;-77
2023/08/22 02:25:58;;;;;;;;;;;;;;;;;;4940043;29;20383;-78
2023/08/22 02:28:24;;;;;;;;;;;;;;;;;;4939790;29;19922;-77
2023/08/22 02:30:49;;;;;;;;;;;;;;;;;;4939859;29;20050;-77
2023/08/22 02:33:15;;;;;;;;;;;;;;;;;;4940229;29;19915;-78
2023/08/22 02:35:41;;;;;;;;;;;;;;;;;;4940399;29;19914;-78
2023/08/22 02:38:07;;;;;;;;;;;;;;;;;;4921345;29;19955;-77
2023/08/22 02:40:34;;;;;;;;;;;;;;;;;;4928780;29;19946;-77
2023/08/22 02:43:00;;;;;;;;;;;;;;;;;;4940051;29;19907;-77
2023/08/22 02:45:26;;;;;;;;;;;;;;;;;;4939846;29;20359;-77
2023/08/22 02:47:53;;;;;;;4.65;1.40;;;;;;;;;;4939739;29;19908;-77
2023/08/22 02:50:19;;;;;;;3.85;1.38;;;;;;;;;;4922903;29;20059;-78
2023/08/22 02:52:45;;;;;;;;;;;;;;;;;;4940003;29;20028;-77
2023/08/22 02:55:11;;;;;;;;;;;;;;;;;;4940078;29;19914;-77
2023/08/22 02:57:37;;;;;;;;;;;;;;;;;;4940103;29;19907;-78
2023/08/22 03:00:04;;;;;;;;;;;;;;;;;;4939595;29;19914;-78
2023/08/22 03:02:30;;;;;;;;;;;;;;;;;;4921803;29;19938;-78
2023/08/22 03:04:56;;;;;;;;;;;;;;;;;;4939207;29;19914;-78
2023/08/22 03:07:22;;;;;;;;;;;;;;;;;;4939211;29;20479;-78
2023/08/22 03:09:48;;;;;;;;;;;;;;;;;;4939011;29;19911;-78
2023/08/22 03:12:14;;;;;;;;;;;;;;;;;;4939129;29;19907;-78
2023/08/22 03:14:40;;;;;;;;;;;;;;;;;;4939437;29;19914;-77
2023/08/22 03:17:06;;;;;;;;;;;;;;;;;;4938974;29;19914;-76
2023/08/22 03:19:32;;;;;;;;;;;;;;;;;;4939295;29;19910;-76
2023/08/22 03:21:57;;;;;;;;;;;;;;;;;;4940499;29;20280;-76
2023/08/22 03:24:23;;;;;;;;;;;;;;;;;;4942728;29;19910;-76
2023/08/22 03:26:49;;;;;;;3.50;1.33;;;;;;;;;;4942070;29;19914;-78
2023/08/22 03:29:15;;;;;;;3.00;1.25;;;;;;;;;;4942318;29;20032;-78
2023/08/22 03:31:41;;;;;;;3.20;1.30;;;;;;;;;;4942209;29;20024;-78
2023/08/22 03:34:07;;;;;;;3.60;1.50;;;;;;;;;;4943416;29;20024;-79
2023/08/22 03:36:33;;;;;;;5.15;1.52;;;;;;;;;;4943172;29;20024;-78
2023/08/22 03:38:59;;;;;;;3.55;1.45;;;;;;;;;;4934641;29;20032;-78
2023/08/22 03:41:25;;;;;;;3.67;1.50;;;;;;;;;;4939745;29;20032;-78
2023/08/22 03:43:51;;;;;;;4.15;1.40;;;;;;;;;;4942875;29;20063;-78
2023/08/22 03:46:17;;;;;;;4.53;1.60;;;;;;;;;;4942936;29;20396;-79
2023/08/22 03:48:43;;;;;;;3.85;1.60;;;;;;;;;;4942881;29;20564;-78
2023/08/22 03:51:09;;;;;;;4.22;1.60;;;;;;;;;;4942355;29;20056;-75
2023/08/22 03:53:36;;;;;;;3.97;1.73;;;;;;;;;;4925688;29;20392;-75
2023/08/22 03:56:03;;;;;;;4.95;2.05;;;;;;;;;;4943021;29;20535;-75
2023/08/22 03:58:29;;;;;;;2.92;1.88;;;;;;;;;;4942991;29;20027;-75
2023/08/22 04:00:55;;;;;;;3.05;1.70;;;;;;;;;;4941921;29;20124;-77
2023/08/22 04:03:21;;;;;;;6.20;1.73;;;;;;;;;;4925535;29;20059;-75
2023/08/22 04:05:47;;;;;;;4.70;1.73;;;;;;;;;;4942576;29;20091;-75
2023/08/22 04:08:13;;;;;;;3.40;1.58;;;;;;;;;;4942010;29;20027;-75
2023/08/22 04:10:39;;;;;;;3.63;1.77;;;;;;;;;;4941475;29;20056;-75
2023/08/22 04:13:05;;;;;;;2.47;1.30;;;;;;;;;;4942069;29;20020;-75
2023/08/22 04:15:31;;;;;;;2.78;1.13;;;;;;;;;;4942691;29;20059;-75
2023/08/22 04:17:57;;;;;;;4.05;1.40;;;;;;;;;;4942352;29;20023;-75
2023/08/22 04:20:23;;;;;;;3.20;1.40;;;;;;;;;;4941718;29;20035;-78
2023/08/22 04:22:49;;;;;;;2.97;1.42;;;;;;;;;;4942053;29;20054;-78
2023/08/22 04:25:15;;;;;;;2.28;1.40;;;;;;;;;;4941848;29;20105;-78
2023/08/22 04:27:41;;;;;;;1.88;1.10;;;;;;;;;;4942287;29;20030;-78
2023/08/22 04:30:07;;;;;;;3.65;1.23;;;;;;;;;;4941447;29;20872;-78
2023/08/22 04:32:33;;;;;;;3.65;1.52;;;;;;;;;;4941669;29;20024;-77
2023/08/22 04:34:59;;;;;;;2.95;1.50;;;;;;;;;;4941218;29;20437;-76
2023/08/22 04:37:25;;;;;;;6.15;1.55;;;;;;;;;;4941751;29;20035;-76
2023/08/22 04:39:51;;;;;;;4.77;2.20;;;;;;;;;;4926847;29;20412;-77
2023/08/22 04:42:17;;;;;;;5.40;1.50;;;;;;;;;;4941307;29;20286;-76
2023/08/22 04:44:43;;;;;;;4.35;1.55;;;;;;;;;;4940831;29;20032;-76
2023/08/22 04:47:09;;;;;;;6.35;1.60;;;;;;;;;;4940791;29;20027;-78
2023/08/22 04:49:35;;;;;;;4.93;1.65;;;;;;;;;;4940659;29;20034;-78
2023/08/22 04:52:02;;;;;;;5.63;1.50;;;;;;;;;;4940910;29;20039;-78
2023/08/22 04:54:28;;;;;;;4.07;1.60;;;;;;;;;;4941102;29;20047;-78
2023/08/22 04:56:54;;;;;;;3.60;1.38;;;;;;;;;;4940971;29;20060;-79
2023/08/22 04:59:20;;;;;;;4.20;1.33;;;;;;;;;;4941248;29;20433;-79
2023/08/22 05:01:46;;;;;;;4.45;1.20;;;;;;;;;;4940996;29;20075;-78
2023/08/22 05:04:12;;;;;;;4.28;1.50;;;;;;;;;;4941417;29;20039;-77
2023/08/22 05:06:38;;;;;;;4.35;1.40;;;;;;;;;;4941586;29;20035;-77
2023/08/22 05:09:04;;;;;;;4.32;1.70;;;;;;;;;;4941244;29;20043;-77
2023/08/22 05:11:30;;;;;;;3.88;1.40;;;;;;;;;;4941242;29;20034;-77
2023/08/22 05:13:56;;;;;;;3.67;1.38;;;;;;;;;;4940711;29;20032;-77
2023/08/22 05:16:22;;;;;;;4.03;1.35;;;;;;;;;;4941523;29;20040;-78
2023/08/22 05:18:48;;;;;;;3.42;1.60;;;;;;;;;;4941098;29;20063;-78
2023/08/22 05:21:14;;;;;;;3.85;1.38;;;;;;;;;;4941289;29;20062;-78
2023/08/22 05:23:40;;;;;;;4.28;1.30;;;;;;;;;;4941041;29;20110;-77
2023/08/22 05:26:06;;;;;;;2.72;1.13;;;;;;;;;;4941083;29;20087;-77
2023/08/22 05:28:32;;;;;;;3.25;1.50;;;;;;;;;;4940489;29;20032;-77
2023/08/22 05:30:58;;;;;;;3.80;1.42;;;;;;;;;;4941152;29;20071;-77
2023/08/22 05:33:24;;;;;;;2.40;1.20;;;;;;;;;;4940293;29;20516;-77
2023/08/22 05:35:50;;;;;;;3.20;1.63;;;;;;;;;;4941220;29;20102;-77
2023/08/22 05:38:16;;;;;;;3.63;1.30;;;;;;;;;;4937653;29;21433;-77
2023/08/22 05:40:42;;;;;;;2.35;1.40;;;;;;;;;;4931000;29;20500;-77
2023/08/22 05:43:08;;;;;;;2.47;1.20;;;;;;;;;;4940454;29;20120;-77
2023/08/22 05:45:34;;;;;;;3.42;1.38;;;;;;;;;;4939802;29;20063;-76
2023/08/22 05:48:00;;;;;;;3.85;1.60;;;;;;;;;;4940598;29;20020;-77
2023/08/22 05:50:26;;;;;;;4.00;1.67;;;;;;;;;;4940276;29;20037;-77
2023/08/22 05:52:52;;;;;;;2.85;1.38;;;;;;;;;;4940134;29;20086;-78
2023/08/22 05:55:18;;;;;;;3.92;1.70;;;;;;;;;;4939572;29;20094;-78
2023/08/22 05:57:45;;;;;;;3.58;1.65;;;;;;;;;;4944910;29;20086;-78
2023/08/22 06:00:11;;;;;;;4.15;1.40;;;;;;;;;;4939677;29;20035;-77
2023/08/22 06:02:37;;;;;;;3.70;1.40;;;;;;;;;;4939356;29;20031;-77
2023/08/22 06:05:06;;;;;;;3.85;1.60;;;;;;;;;;4946479;29;20023;-76
2023/08/22 06:07:32;;;;;;;3.30;1.33;;;;;;;;;;4941485;29;20038;-79
2023/08/22 06:09:58;;;;;;;2.70;1.20;;;;;;;;;;4947805;29;20083;-80
2023/08/22 06:12:25;;;;;;;4.20;1.80;;;;;;;;;;4942216;29;20038;-79
2023/08/22 06:14:51;;;;;;;4.50;1.63;;;;;;;;;;4940298;29;20486;-80
2023/08/22 06:17:17;;;;;;;3.50;1.30;;;;;;;;;;4940359;29;20032;-76
2023/08/22 06:19:43;;;;;;;2.53;1.70;;;;;;;;;;4939502;29;20398;-75
2023/08/22 06:22:09;;;;;;;4.78;1.70;;;;;;;;;;4951153;29;20505;-75
2023/08/22 06:24:35;;;;;;;4.07;1.55;;;;;;;;;;4939587;29;20035;-75
2023/08/22 06:27:01;;;;;;;6.95;1.70;;;;;;;;;;4939708;29;20035;-75
2023/08/22 06:29:27;;;;;;;3.13;1.38;;;;;;;;;;4939966;29;20031;-76
2023/08/22 06:31:53;;;;;;;4.43;1.60;;;;;;;;;;4938981;29;20027;-75
2023/08/22 06:34:19;;;;;;;2.78;1.42;;;;;;;;;;4948730;29;20512;-75
2023/08/22 06:36:45;;;;;;;3.75;1.60;;;;;;;;;;4923261;29;20066;-81
2023/08/22 06:39:11;;;;;;;4.38;1.52;;;;;;;;;;4931457;29;20035;-79
2023/08/22 06:41:37;;;;;;;3.92;1.63;;;;;;;;;;4935676;29;20441;-78
2023/08/22 06:44:08;;;;;;;2.97;1.50;;;;;;;;;;4938846;29;20031;-78
2023/08/22 06:46:35;;;;;;;3.83;1.50;;;;;;;;;;4921606;29;20408;-80
2023/08/22 06:49:02;;;;;;;5.28;1.75;;;;;;;;;;4938617;29;20032;-71
2023/08/22 06:51:28;;;;;;;4.00;1.52;;;;;;;;;;4939445;29;20043;-71
2023/08/22 06:53:54;;;;;;;2.85;1.33;;;;;;;;;;4939009;29;20682;-71
2023/08/22 06:56:20;;;;;;;2.97;1.40;;;;;;;;;;4920846;29;20060;-71
2023/08/22 06:58:47;;;;;;;4.18;1.55;;;;;;;;;;4938489;29;20027;-71
2023/08/22 07:01:13;;;;;;;3.88;1.50;;;;;;;;;;4938266;29;20032;-68
2023/08/22 07:03:39;;;;;;;3.13;1.48;;;;;;;;;;4938495;29;20075;-69
2023/08/22 07:06:05;;;;;;;3.35;1.23;;;;;;;;;;4938545;29;20055;-68
2023/08/22 07:08:31;;;;;;;3.67;1.30;;;;;;;;;;4920979;29;20035;-68
2023/08/22 07:11:15;;;;;;;4.00;1.40;;;;;;;;;;4937632;29;20404;-67
2023/08/22 07:13:41;;;;;;;4.22;1.60;;;;;;;;;;4940371;29;20035;-69
2023/08/22 07:16:07;;;;;;;3.08;1.50;;;;;;;;;;4920519;29;20028;-68
2023/08/22 07:18:33;;;;;;;4.45;1.40;;;;;;;;;;4938238;29;20035;-67
2023/08/22 07:21:05;;;;;;;3.72;1.10;;;;;;;;;;4938152;29;20035;-68
2023/08/22 07:23:32;;;;;;;2.38;1.30;;;;;;;;;;4938029;29;20067;-71
2023/08/22 07:25:58;;;;;;;5.43;1.30;;;;;;;;;;4938554;29;20055;-71
2023/08/22 07:28:24;;;;;;;5.57;1.25;;;;;;;;;;4937844;29;20036;-71
2023/08/22 07:30:50;;;;;;;3.80;1.45;;;;;;;;;;4939034;29;20107;-71
2023/08/22 07:33:16;;;;;;;3.05;1.10;;;;;;;;;;4921519;29;20020;-71
2023/08/22 07:35:42;;;;;;;3.42;1.40;;;;;;;;;;4938661;29;20074;-71
2023/08/22 07:38:08;;;;;;;3.92;1.40;;;;;;;;;;4937456;29;20074;-72
2023/08/22 07:40:37;;;;;;;2.85;1.45;;;;;;;;;;4929216;29;20469;-71
2023/08/22 07:43:03;;;;;;;3.97;1.10;;;;;;;;;;4939344;29;20030;-71
2023/08/22 07:45:29;;;;;;;3.70;1.50;;;;;;;;;;4937763;29;20495;-72
2023/08/22 07:47:55;;;;;;;3.95;1.48;;;;;;;;;;4937535;29;20019;-71
2023/08/22 07:50:21;;;;;;;3.95;1.23;;;;;;;;;;4938567;29;20027;-72
2023/08/22 07:52:47;;;;;;;2.13;1.10;;;;;;;;;;4920958;29;20023;-72
2023/08/22 07:55:13;;;;;;;4.70;1.17;;;;;;;;;;4937782;29;20110;-71
2023/08/22 07:57:40;;;;;;;3.17;1.30;;;;;;;;;;4938233;29;20024;-72
2023/08/22 08:00:11;;;;;;;4.30;1.10;;;;;;;;;;4938469;29;20027;-71
2023/08/22 08:02:37;;;;;;;2.58;1.00;;;;;;;;;;4937898;29;20083;-72
2023/08/22 08:05:03;;;;;;;2.88;1.00;;;;;;;;;;4939313;29;20042;-71
2023/08/22 08:07:29;;;;;;;3.28;0.88;;;;;;;;;;4922061;29;20035;-71
2023/08/22 08:09:56;;;;;;;3.95;0.90;;;;;;;;;;4941712;29;20032;-72
2023/08/22 08:12:22;;;;;;;3.53;1.15;;;;;;;;;;4925460;29;20497;-71
2023/08/22 08:14:48;;;;;;;1.88;0.80;;;;;;;;;;4941327;29;20128;-72
2023/08/22 08:17:17;;;;;;;2.35;1.00;;;;;;;;;;4942361;29;20460;-71
2023/08/22 08:19:43;;;;;;;2.75;0.90;;;;;;;;;;4942459;29;20066;-72
2023/08/22 08:22:09;;;;;;;3.03;0.93;;;;;;;;;;4942329;29;20075;-71
2023/08/22 08:24:35;;;;;;;1.30;0.65;;;;;;;;;;4942426;29;20035;-71
2023/08/22 08:27:01;;;;;;;3.63;1.10;;;;;;;;;;4942355;29;20035;-71
2023/08/22 08:29:27;;;;;;;3.33;1.05;;;;;;;;;;4942415;29;20032;-72
2023/08/22 08:31:55;;;;;;;5.07;1.17;;;;;;;;;;4942369;29;20097;-72
2023/08/22 08:34:21;;;;;;;3.22;1.08;;;;;;;;;;4942467;29;20020;-72
2023/08/22 08:36:47;;;;;;;2.70;1.13;;;;;;;;;;4942296;29;20020;-72
2023/08/22 08:39:13;;;;;;;2.60;0.73;;;;;;;;;;4931909;29;20161;-72
2023/08/22 08:41:43;;;;;;;3.35;1.00;;;;;;;;;;4939799;29;20032;-71
2023/08/22 08:44:11;;;;;;;4.90;1.00;;;;;;;;;;4950366;29;20058;-72
2023/08/22 08:46:37;;;;;;;2.45;0.85;;;;;;;;;;4945215;29;20098;-72
2023/08/22 08:49:03;;;;;;;4.13;1.50;;;;;;;;;;4948266;29;20060;-71
2023/08/22 08:51:29;;;;;;;2.85;0.90;;;;;;;;;;4927972;29;20039;-72
2023/08/22 08:53:56;;;;;;;1.30;0.63;;;;;;;;;;4941728;29;20113;-72
2023/08/22 08:56:22;;;;;;;2.35;0.90;;;;;;;;;;4941593;29;20503;-72
2023/08/22 08:58:48;;;;;;;2.47;1.00;;;;;;;;;;4941782;29;20058;-72
2023/08/22 09:01:14;;;;;;;3.80;0.95;;;;;;;;;;4941775;29;20485;-72
2023/08/22 09:03:40;;;;;;;3.20;1.10;;;;;;;;;;4941748;29;20066;-72
2023/08/22 09:06:06;;;;;;;2.30;0.70;;;;;;;;;;4941597;29;20031;-72
2023/08/22 09:08:32;;;;;;;3.10;0.90;;;;;;;;;;4924230;29;20031;-71
2023/08/22 09:10:59;;;;;;;2.58;0.90;;;;;;;;;;4941190;29;20169;-72
2023/08/22 09:13:26;;;;;;;3.08;0.90;;;;;;;;;;4941563;29;20473;-72
2023/08/22 09:15:52;;;;;;;3.05;0.85;;;;;;;;;;4941350;29;20047;-72
2023/08/22 09:18:18;;;;;;;3.30;0.90;;;;;;;;;;4947603;29;20028;-72
2023/08/22 09:20:45;;;;;;;2.50;0.85;;;;;;;;;;4923886;29;20504;-72
2023/08/22 09:23:27;;;;;;;4.32;1.15;;;;;;;;;;4940852;29;20043;-72
2023/08/22 09:25:54;;;;;;;3.10;1.13;;;;;;;;;;4941310;29;20051;-72
2023/08/22 09:28:20;;;;;;;4.10;0.90;;;;;;;;;;4940756;29;20075;-72
2023/08/22 09:30:54;;;;;;;2.67;1.00;;;;;;;;;;4941201;29;20024;-72
2023/08/22 09:33:20;;;;;;;3.83;0.98;;;;;;;;;;4941113;29;20445;-72
2023/08/22 09:35:48;;;;;;;3.85;0.77;;;;;;;;;;4941217;29;20023;-72
2023/08/22 09:38:14;;;;;;;2.08;0.90;;;;;;;;;;4938344;29;20024;-72
2023/08/22 09:40:50;;;;;;;3.28;1.00;;;;;;;;;;4930670;29;20481;-72
2023/08/22 09:43:18;;;;;;;3.20;0.80;;;;;;;;;;4940699;29;20027;-72
2023/08/22 09:45:44;;;;;;;2.67;0.70;;;;;;;;;;4939334;29;20020;-72
2023/08/22 09:48:14;;;;;;;2.80;0.80;;;;;;;;;;4939784;29;20032;-72
2023/08/22 09:50:43;;;;;;;2.83;0.85;;;;;;;;;;4923659;29;20026;-72
2023/08/22 09:53:10;;;;;;;2.47;0.70;;;;;;;;;;4922634;29;20091;-71
2023/08/22 09:55:36;;;;;;;1.88;0.68;;;;;;;;;;4923199;29;20020;-72
2023/08/22 09:58:04;;;;;;;2.03;0.65;;;;;;;;;;4940690;29;20025;-72
2023/08/22 10:00:31;;;;;;;1.67;0.80;;;;;;;;;;4940966;29;20066;-72
2023/08/22 10:02:57;;;;;;;5.72;0.90;;;;;;;;;;4940639;29;20032;-71
2023/08/22 10:05:23;;;;;;;1.58;0.70;;;;;;;;;;4923609;29;20083;-71
2023/08/22 10:07:50;;;;;;;2.10;0.90;;;;;;;;;;4940643;29;20705;-72
2023/08/22 10:10:16;;;;;;;1.40;0.80;;;;;;;;;;4931792;29;20028;-72
2023/08/22 10:12:43;;;;;;;3.42;0.73;;;;;;;;;;4942945;29;20082;-72
2023/08/22 10:15:09;;;;;;;2.75;0.80;;;;;;;;;;4940239;29;20447;-71
2023/08/22 10:17:39;;;;;;;2.33;0.60;;;;;;;;;;4947590;29;20040;-70
2023/08/22 10:20:06;;;;;;;1.13;0.60;;;;;;;;;;4939964;29;20159;-69
2023/08/22 10:22:33;;;;;;;2.00;0.70;;;;;;;;;;4940134;29;20055;-69
2023/08/22 10:25:06;;;;;;;2.60;0.77;;;;;;;;;;4944110;29;20500;-68
2023/08/22 10:27:32;;;;;;;2.47;0.77;;;;;;;;;;4922808;29;20050;-69
2023/08/22 10:30:18;;;;;;;3.63;0.70;;;;;;;;;;4939828;29;20075;-69
2023/08/22 10:33:05;;;;;;;1.50;0.73;;;;;;;;;;4939652;29;20028;-69
2023/08/22 10:35:31;;;;;;;2.08;0.80;;;;;;;;;;4940027;29;20027;-69
2023/08/22 10:37:57;;;;;;;1.58;0.60;;;;;;;;;;4922267;29;20107;-69
2023/08/22 10:40:25;;;;;;;3.28;0.98;;;;;;;;;;4927638;29;20019;-69
2023/08/22 10:42:52;;;;;;;2.78;0.63;;;;;;;;;;4950616;29;20147;-69
2023/08/22 10:45:20;;;;;;;2.80;0.75;;;;;;;;;;4940042;29;20023;-68
2023/08/22 10:47:49;;;;;;;1.40;0.60;;;;;;;;;;4939610;29;20031;-69
2023/08/22 10:50:16;;;;;;;2.50;0.70;;;;;;;;;;4939742;29;20524;-69
2023/08/22 10:52:42;;;;;;;2.78;0.70;;;;;;;;;;4939689;29;20096;-69
2023/08/22 10:55:13;;;;;;;2.83;0.80;;;23.70;99.90;;;;;;4939594;29;20051;-70
2023/08/22 10:57:41;;;;;;;1.50;0.60;;;23.50;99.90;;;;;;4939604;29;20028;-69
2023/08/22 11:00:19;;;;;;;1.50;0.60;;;23.60;99.10;;;;;;4939781;29;20034;-69
2023/08/22 11:02:49;;;;;;;2.47;0.52;;;23.60;99.70;;;;;;4939438;29;20188;-70
2023/08/22 11:05:15;;;;;;;2.10;0.70;;;23.60;99.10;;;;;;4922687;29;20058;-70
2023/08/22 11:07:51;;;;;;;1.98;0.50;;;23.60;98.90;;;;;;4939515;29;20027;-68
2023/08/22 11:10:26;;;;;;;2.17;0.73;;;23.60;99.40;;;;;;4939567;29;20086;-68
2023/08/22 11:12:55;;;;;;;1.60;0.50;;;23.80;99.90;;;;;;4939834;29;20042;-69
2023/08/22 11:15:21;;;;;;;2.10;1.00;;;23.80;99.00;;;;;;4949783;29;20051;-68
2023/08/22 11:17:48;;;;;;;2.38;0.88;;;23.90;99.40;;;;;;4942139;29;20027;-68
2023/08/22 11:20:16;;;;;;;1.27;0.60;;;24.00;99.10;;;;;;4939261;29;20103;-68
2023/08/22 11:22:43;;;;;;;1.45;0.50;;;23.90;99.30;;;;;;4939352;29;20062;-68
2023/08/22 11:25:10;;;;;;;2.83;0.60;;;24.00;99.10;;;;;;4939200;29;20389;-68
2023/08/22 11:27:39;;;;;;;2.13;0.70;;;24.00;98.60;;;;;;4938640;29;20476;-68
2023/08/22 11:30:07;;;;;;;1.20;0.70;;;24.00;99.30;;;;;;4938569;29;20043;-68
2023/08/22 11:32:34;;;;;;;3.08;0.68;;;23.90;98.70;;;;;;4922514;29;20020;-68
2023/08/22 11:35:03;;;;;;;1.35;0.63;;;24.00;98.30;;;;;;4939504;29;20054;-69
2023/08/22 11:37:31;;;;;;;1.13;0.50;;;24.00;98.80;;;;;;4939508;29;20032;-68
2023/08/22 11:39:58;;;;;;;1.75;0.80;;;24.00;98.10;;;;;;4942130;29;20436;-68
2023/08/22 11:42:24;;;;;;;1.08;0.70;;;24.00;96.90;;;;;;4939453;29;20028;-68
2023/08/22 11:45:09;;;;;;;2.85;0.70;;;24.00;98.10;;;;;;4942249;29;20023;-68
2023/08/22 11:47:48;;;;;;;2.40;0.70;;;24.00;97.50;;;;;;4942965;29;20032;-68
2023/08/22 11:50:14;;;;;;;1.10;0.45;;;24.00;97.00;;;;;;4914627;29;20555;-68
2023/08/22 11:52:47;;;;;;;1.42;0.50;;;24.10;98.60;;;;;;4942982;29;20059;-68
2023/08/22 11:55:22;;;;;;;1.75;0.65;;;24.20;96.00;;;;;;4942621;29;20098;-68
2023/08/22 11:57:50;;;;;;;1.60;0.50;;;24.10;95.70;;;;;;4942821;29;20026;-68
2023/08/22 12:00:16;;;;;;;1.85;0.60;;;24.10;96.60;;;;;;4942830;29;20031;-68
2023/08/22 12:02:43;;;;;;;2.03;0.55;;;24.20;97.30;;;;;;4942633;29;20031;-68
2023/08/22 12:05:26;;;;;;;2.15;0.75;;;24.30;96.20;;;;;;4942776;29;20412;-68
2023/08/22 12:07:52;;;;;;;2.45;0.60;;;24.20;96.60;;;;;;4942447;29;20031;-68
2023/08/22 12:10:18;;;;;;;3.00;0.50;;;24.30;95.80;;;;;;4942429;29;20031;-68
2023/08/22 12:12:43;;;;;;;0.93;0.60;;;24.30;96.40;;;;;;4942741;29;20051;-68
2023/08/22 12:15:09;;;;;;;0.80;0.40;;;24.20;96.10;;;;;;4942585;29;20020;-68
2023/08/22 12:17:35;;;;;;;0.80;0.40;;;24.30;97.00;;;;;;4942699;29;20507;-68
2023/08/22 12:20:00;;;;;;;1.10;0.40;;;24.40;96.00;;;;;;4942368;29;20035;-68
2023/08/22 12:22:26;;;;;;;3.08;0.60;;;24.40;95.20;;;;;;4925071;29;20599;-68
2023/08/22 12:24:51;;;;;;;1.33;0.60;;;24.40;94.60;;;;;;4942216;29;20095;-68
2023/08/22 12:27:17;;;;;;;1.15;0.43;;;24.40;96.10;;;;;;4942250;29;20031;-68
2023/08/22 12:29:44;;;;;;;1.88;0.68;;;24.40;95.10;;;;;;4942277;29;20489;-68
2023/08/22 12:32:10;;;;;;;1.60;0.40;;;24.40;95.70;;;;;;4942362;29;20035;-68
2023/08/22 12:34:35;;;;;;;0.95;0.50;;;24.40;95.30;;;;;;4942263;29;20028;-68
2023/08/22 12:37:01;;;;;;;1.77;0.55;;;24.40;94.80;;;;;;4925218;29;20087;-68
2023/08/22 12:39:26;;;;;;;1.23;0.55;;;24.30;94.30;;;;;;4930238;29;20409;-68
2023/08/22 12:41:52;;;;;;;2.45;0.60;;;;;;;;;;4941336;29;20028;-68
2023/08/22 12:44:18;;;;;;;2.40;0.50;;;;;;;;;;4942191;29;20458;-68
2023/08/22 12:46:44;;;;;;;1.08;0.40;;;;;;;;;;4941947;29;20023;-68
2023/08/22 12:49:10;;;;;;;2.85;0.70;;;;;;;;;;4941930;29;20400;-68
2023/08/22 12:51:36;;;;;;;1.63;0.57;;;;;;;;;;4924739;29;20027;-68
2023/08/22 12:54:02;;;;;;;1.38;0.45;;;;;;;;;;4941366;28;20366;-68
2023/08/22 12:56:28;;;;;;;0.65;0.40;;;;;;;;;;4924515;29;20098;-68
2023/08/22 12:58:55;;;;;;;2.78;0.50;;;;;;;;;;4924972;29;20114;-68
2023/08/22 13:01:21;;;;;;;1.40;0.45;;;;;;;;;;4941739;29;20048;-68
2023/08/22 13:03:47;;;;;;;1.23;0.32;;;;;;;;;;4942049;29;20031;-68
2023/08/22 13:06:13;;;;;;;2.30;0.50;;;;;;;;;;4941581;29;20032;-68
2023/08/22 13:08:39;;;;;;;1.98;0.50;;;;;;;;;;4924368;29;20031;-68
2023/08/22 13:11:05;;;;;;;1.60;0.65;;;;;;;;;;4941430;29;20115;-68
2023/08/22 13:13:31;;;;;;;1.67;0.43;;;;;;;;;;4924544;29;20048;-68
2023/08/22 13:15:57;;;;;;;1.08;0.50;;;;;;;;;;4924380;29;20028;-68
2023/08/22 13:18:23;;;;;;;2.60;0.57;;;;;;;;;;4924433;29;20110;-68
2023/08/22 13:20:49;;;;;;;1.00;0.60;;;;;;;;;;4941465;29;20075;-68
2023/08/22 13:23:15;;;;;;;1.65;0.47;;;24.70;92.80;;;;;;4941186;29;20052;-68
2023/08/22 13:25:41;;;;;;;2.72;0.60;;;24.70;93.20;;;;;;4924029;29;20036;-68
2023/08/22 13:28:07;;;;;;;1.30;0.50;;;24.60;93.00;;;;;;4924295;29;20020;-68
2023/08/22 13:30:33;;;;;;;2.05;0.60;;;24.60;93.60;;;;;;4943544;29;20044;-67
2023/08/22 13:32:59;;;;;;;3.05;0.50;;;24.70;92.80;;;;;;4931217;29;20030;-68
2023/08/22 13:35:25;;;;;;;1.58;0.52;;;24.70;93.50;;;;;;4941110;29;20094;-68
2023/08/22 13:37:50;;;;;;;3.97;0.50;;;24.80;93.00;;;;;;4923901;29;20051;-68
2023/08/22 13:40:16;;;;;;;1.30;0.57;;;24.70;91.90;;;;;;4928167;29;20039;-68
2023/08/22 13:42:42;;;;;;;1.02;0.52;;;24.60;92.70;;;;;;4941104;29;20027;-68
2023/08/22 13:45:10;;;;;;;1.30;0.40;;;24.70;92.80;;;;;;4923805;29;20083;-68
2023/08/22 13:47:38;;;;;;;2.17;0.60;;;24.80;93.10;;;;;;4940770;29;20147;-68
2023/08/22 13:50:04;;;;;;;2.08;0.50;;;24.90;92.80;;;;;;4928318;29;20027;-68
2023/08/22 13:52:30;;;;;;;1.48;0.50;;;24.90;92.30;;;;;;4940945;29;20028;-69
2023/08/22 13:54:55;;;;;;;2.17;0.55;;;24.80;91.90;;;;;;4940703;29;20481;-68
2023/08/22 13:57:21;;;;;;;1.80;0.60;;;24.80;91.30;;;;;;4940907;29;20027;-68
2023/08/22 13:59:47;;;;;;;3.03;0.70;;;24.80;92.20;;;;;;4941351;29;20090;-68
2023/08/22 14:02:12;;;;;;;0.73;0.40;;;24.90;92.70;;;;;;4944903;29;20028;-67
2023/08/22 14:04:39;;;;;;;2.97;0.60;;;25.00;91.60;;;;;;4940110;29;20111;-67
2023/08/22 14:07:06;;;;;;;2.22;0.80;;;24.90;91.20;;;;;;4944882;29;20031;-68
2023/08/22 14:09:32;;;;;;;1.83;0.75;;;25.00;92.70;;;;;;4927802;29;20035;-67
2023/08/22 14:11:57;;;;;;;1.05;0.40;;;25.10;91.90;;;;;;4940392;29;20035;-68
2023/08/22 14:14:23;;;;;;;1.80;0.40;;;25.10;91.50;;;;;;4940086;29;20046;-67
2023/08/22 14:16:49;;;;;;;1.73;0.70;;;25.10;91.80;;;;;;4942030;29;20028;-67
2023/08/22 14:19:14;;;;;;;2.22;0.50;;;25.10;91.50;;;;;;4940365;29;20035;-68
2023/08/22 14:21:40;;;;;;;2.08;0.60;;;25.00;91.00;;;;;;4940016;29;20035;-68
2023/08/22 14:24:06;;;;;;;1.40;0.50;;;24.90;92.20;;;;;;4940043;29;20507;-68
2023/08/22 14:26:31;;;;;;;2.78;0.57;;;24.90;92.00;;;;;;4922942;29;20036;-67